Detall de PIREP

Printer-friendly versionPDF version

[2012/07/27 22:12:00]
Flight IATA:CT3123
Pilot Number:026
Company ICAO:CAT
Aircraft Type:DC85/A
PAX:132
Aircraft Registration:PAX
Departing Airport: LEZG
Destination Airport: LEPA
Alternate Airport:LEMH
Online: VATSIM
Route:GRAUS G23 BCN/N0360F130 W7 LORES
Flight Level:F190
No Slew and time accel
No pause
Crash detect
Detect pilot in Cockpit between each 30 and 45 minutes
22:12 Zero fuel Weight: 178048 Lbs, Fuel Weight: 24016 Lbs
22:12 VATSIM:LEZG 272200Z 28005KT 190V300 9999 FEW040TCU SCT070 22/17 Q1015
22:12 VATSIM:LEPA 272200Z 22004KT 8000 FEW009 26/24 Q1011 NOSIG
22:12 VOICE CATALONIAN / IATA CT3123 INTERHUB ROUTE
22:26 Parking Brakes off
22:45 Take-off
22:45 Take off Weight: 200237 Lbs
22:45 Wind: 329º @ 005 Knots Heading: 119º
22:45 POS N41º 39´ 28´´ W001º 00´ 50´´
22:45 Gear Up: 169 Knots
22:45 Flaps:2 at 169 Knots
22:46 Flaps:1 at 190 Knots
22:47 Flaps:0 at 193 Knots
22:54 TOC
22:54 Fuel Weight: 19350 Lb
23:00 Wind:192º@000 Knots Heading: 121º Ground Speed: 428 Knots Altitude 18999 ft
23:15 Wind:047º@022 Knots Heading: 149º Ground Speed: 433 Knots Altitude 18937 ft
23:16 TOD
23:16 Fuel Weight: 14341 Lb
23:30 Wind:219º@015 Knots Heading: 252º Ground Speed: 183 Knots Altitude 4333 ft
23:31 Gear Down: 225 Knots
23:31 Flaps:1 at 223 Knots
23:31 Flaps:2 at 136 Knots
23:33 Flaps:3 at 155 Knots
23:34 Flaps:4 at 156 Knots
23:35 Flaps:5 at 141 Knots
23:36 TouchDown:Rate -169 ft/min Speed: 120 Knots
23:36 VATSIM:LEPA 272300Z 22008KT 8000 SCT006 26/24 Q1011 NOSIG
23:36 Land
23:36 Wind:222º@008 Knots
23:36 Heading: 235º
23:36 Flight Duration: 00:51
23:36 Landing Weight: 190200 Lbs
23:36 POS N39º 33´ 23´´ E002º 43´ 49´´
23:40 Parking brakes on
23:40 Block to Block Duration: 01:14
23:40 Final Fuel: 11823 Lbls
23:40 Spent Fuel: 12193 Lbls
23:40 Flight Length: 285 NM
23:40 TOD Land Length: 88 NM

Exportar CSV

Powered by Drupal - Modified by Danger4k